sensor_id;sensor_type;location;lat;lon;timestamp;P1;durP1;ratioP1;P2;durP2;ratioP2
4674;SDS011;2351;50.812;12.872;2023-04-29T00:01:37;14.43;;;7.70;;
4674;SDS011;2351;50.812;12.872;2023-04-29T00:04:09;11.03;;;7.90;;
4674;SDS011;2351;50.812;12.872;2023-04-29T00:06:40;11.43;;;7.37;;
4674;SDS011;2351;50.812;12.872;2023-04-29T00:09:13;13.43;;;8.07;;
4674;SDS011;2351;50.812;12.872;2023-04-29T00:11:45;13.03;;;7.93;;
4674;SDS011;2351;50.812;12.872;2023-04-29T00:14:19;13.03;;;7.60;;
4674;SDS011;2351;50.812;12.872;2023-04-29T00:16:51;12.70;;;6.73;;
4674;SDS011;2351;50.812;12.872;2023-04-29T00:19:22;12.73;;;7.60;;
4674;SDS011;2351;50.812;12.872;2023-04-29T00:21:54;12.40;;;8.13;;
4674;SDS011;2351;50.812;12.872;2023-04-29T00:24:27;11.93;;;7.50;;
4674;SDS011;2351;50.812;12.872;2023-04-29T00:26:59;11.60;;;7.33;;
4674;SDS011;2351;50.812;12.872;2023-04-29T00:29:31;17.33;;;7.70;;
4674;SDS011;2351;50.812;12.872;2023-04-29T00:32:03;15.37;;;7.60;;
4674;SDS011;2351;50.812;12.872;2023-04-29T00:34:35;14.67;;;8.13;;
4674;SDS011;2351;50.812;12.872;2023-04-29T00:37:07;15.27;;;7.07;;
4674;SDS011;2351;50.812;12.872;2023-04-29T00:39:40;14.40;;;8.60;;
4674;SDS011;2351;50.812;12.872;2023-04-29T00:42:12;16.03;;;9.73;;
4674;SDS011;2351;50.812;12.872;2023-04-29T00:44:43;16.13;;;8.07;;
4674;SDS011;2351;50.812;12.872;2023-04-29T00:47:15;16.70;;;9.67;;
4674;SDS011;2351;50.812;12.872;2023-04-29T00:49:47;12.70;;;8.90;;
4674;SDS011;2351;50.812;12.872;2023-04-29T00:52:18;13.63;;;9.37;;
4674;SDS011;2351;50.812;12.872;2023-04-29T00:54:52;13.17;;;7.93;;
4674;SDS011;2351;50.812;12.872;2023-04-29T00:57:24;18.30;;;8.90;;
4674;SDS011;2351;50.812;12.872;2023-04-29T00:59:58;17.50;;;9.10;;
4674;SDS011;2351;50.812;12.872;2023-04-29T01:02:30;16.37;;;9.33;;
4674;SDS011;2351;50.812;12.872;2023-04-29T01:05:02;14.57;;;8.73;;
4674;SDS011;2351;50.812;12.872;2023-04-29T01:07:36;14.13;;;8.80;;
4674;SDS011;2351;50.812;12.872;2023-04-29T01:10:18;14.73;;;9.47;;
4674;SDS011;2351;50.812;12.872;2023-04-29T01:12:58;16.77;;;8.87;;
4674;SDS011;2351;50.812;12.872;2023-04-29T01:15:38;14.80;;;8.27;;
4674;SDS011;2351;50.812;12.872;2023-04-29T01:18:17;13.53;;;7.60;;
4674;SDS011;2351;50.812;12.872;2023-04-29T01:20:53;14.57;;;7.53;;
4674;SDS011;2351;50.812;12.872;2023-04-29T01:23:28;12.20;;;8.13;;
4674;SDS011;2351;50.812;12.872;2023-04-29T01:26:00;17.20;;;8.50;;
4674;SDS011;2351;50.812;12.872;2023-04-29T01:28:44;14.73;;;8.20;;
4674;SDS011;2351;50.812;12.872;2023-04-29T01:31:23;16.93;;;8.43;;
4674;SDS011;2351;50.812;12.872;2023-04-29T01:34:04;15.83;;;8.87;;
4674;SDS011;2351;50.812;12.872;2023-04-29T01:36:43;15.37;;;8.53;;
4674;SDS011;2351;50.812;12.872;2023-04-29T01:39:36;14.83;;;8.30;;
4674;SDS011;2351;50.812;12.872;2023-04-29T01:42:17;17.10;;;8.30;;
4674;SDS011;2351;50.812;12.872;2023-04-29T01:44:54;17.37;;;9.00;;
4674;SDS011;2351;50.812;12.872;2023-04-29T01:47:30;19.30;;;9.67;;
4674;SDS011;2351;50.812;12.872;2023-04-29T01:50:03;20.37;;;10.27;;
4674;SDS011;2351;50.812;12.872;2023-04-29T01:52:35;19.10;;;11.00;;
4674;SDS011;2351;50.812;12.872;2023-04-29T01:55:09;21.70;;;12.00;;
4674;SDS011;2351;50.812;12.872;2023-04-29T01:57:41;17.93;;;10.33;;
4674;SDS011;2351;50.812;12.872;2023-04-29T02:00:13;19.73;;;10.60;;
4674;SDS011;2351;50.812;12.872;2023-04-29T02:02:45;21.60;;;11.00;;
4674;SDS011;2351;50.812;12.872;2023-04-29T02:05:16;25.07;;;11.63;;
4674;SDS011;2351;50.812;12.872;2023-04-29T02:07:48;22.60;;;11.17;;
4674;SDS011;2351;50.812;12.872;2023-04-29T02:10:21;18.80;;;10.77;;
4674;SDS011;2351;50.812;12.872;2023-04-29T02:12:53;22.67;;;12.17;;
4674;SDS011;2351;50.812;12.872;2023-04-29T02:15:25;23.23;;;12.53;;
4674;SDS011;2351;50.812;12.872;2023-04-29T02:17:57;19.90;;;11.03;;
4674;SDS011;2351;50.812;12.872;2023-04-29T02:20:29;19.73;;;10.30;;
4674;SDS011;2351;50.812;12.872;2023-04-29T02:23:01;22.33;;;12.83;;
4674;SDS011;2351;50.812;12.872;2023-04-29T02:25:34;21.80;;;12.70;;
4674;SDS011;2351;50.812;12.872;2023-04-29T02:28:06;19.70;;;11.67;;
4674;SDS011;2351;50.812;12.872;2023-04-29T02:30:38;17.43;;;11.53;;
4674;SDS011;2351;50.812;12.872;2023-04-29T02:33:10;19.07;;;10.90;;
4674;SDS011;2351;50.812;12.872;2023-04-29T02:35:42;24.03;;;12.67;;
4674;SDS011;2351;50.812;12.872;2023-04-29T02:38:14;19.70;;;12.47;;
4674;SDS011;2351;50.812;12.872;2023-04-29T02:40:47;22.67;;;11.70;;
4674;SDS011;2351;50.812;12.872;2023-04-29T02:43:19;19.80;;;11.40;;
4674;SDS011;2351;50.812;12.872;2023-04-29T02:45:51;21.27;;;12.37;;
4674;SDS011;2351;50.812;12.872;2023-04-29T02:48:22;24.20;;;12.80;;
4674;SDS011;2351;50.812;12.872;2023-04-29T02:50:54;20.40;;;12.10;;
4674;SDS011;2351;50.812;12.872;2023-04-29T02:53:26;21.00;;;11.37;;
4674;SDS011;2351;50.812;12.872;2023-04-29T02:55:59;22.70;;;12.67;;
4674;SDS011;2351;50.812;12.872;2023-04-29T02:58:30;26.47;;;13.57;;
4674;SDS011;2351;50.812;12.872;2023-04-29T03:01:02;22.37;;;12.80;;
4674;SDS011;2351;50.812;12.872;2023-04-29T03:03:34;21.10;;;11.70;;
4674;SDS011;2351;50.812;12.872;2023-04-29T03:06:06;23.63;;;11.93;;
4674;SDS011;2351;50.812;12.872;2023-04-29T03:08:38;21.57;;;10.20;;
4674;SDS011;2351;50.812;12.872;2023-04-29T03:11:11;20.30;;;12.40;;
4674;SDS011;2351;50.812;12.872;2023-04-29T03:13:43;20.97;;;10.00;;
4674;SDS011;2351;50.812;12.872;2023-04-29T03:16:15;23.17;;;11.53;;
4674;SDS011;2351;50.812;12.872;2023-04-29T03:18:46;21.77;;;10.87;;
4674;SDS011;2351;50.812;12.872;2023-04-29T03:21:19;20.90;;;10.73;;
4674;SDS011;2351;50.812;12.872;2023-04-29T03:23:50;19.50;;;11.20;;
4674;SDS011;2351;50.812;12.872;2023-04-29T03:26:23;21.83;;;11.77;;
4674;SDS011;2351;50.812;12.872;2023-04-29T03:28:55;18.60;;;11.33;;
4674;SDS011;2351;50.812;12.872;2023-04-29T03:31:27;20.63;;;10.77;;
4674;SDS011;2351;50.812;12.872;2023-04-29T03:33:59;22.57;;;11.47;;
4674;SDS011;2351;50.812;12.872;2023-04-29T03:36:31;21.00;;;11.07;;
4674;SDS011;2351;50.812;12.872;2023-04-29T03:39:02;20.60;;;11.47;;
4674;SDS011;2351;50.812;12.872;2023-04-29T03:41:36;24.20;;;12.40;;
4674;SDS011;2351;50.812;12.872;2023-04-29T03:44:08;31.70;;;16.40;;
4674;SDS011;2351;50.812;12.872;2023-04-29T03:46:39;20.80;;;10.77;;
4674;SDS011;2351;50.812;12.872;2023-04-29T03:49:11;24.40;;;12.57;;
4674;SDS011;2351;50.812;12.872;2023-04-29T03:51:43;22.80;;;11.60;;
4674;SDS011;2351;50.812;12.872;2023-04-29T03:54:15;27.40;;;13.20;;
4674;SDS011;2351;50.812;12.872;2023-04-29T03:56:48;26.77;;;12.33;;
4674;SDS011;2351;50.812;12.872;2023-04-29T03:59:20;20.33;;;11.40;;
4674;SDS011;2351;50.812;12.872;2023-04-29T04:01:52;27.03;;;13.43;;
4674;SDS011;2351;50.812;12.872;2023-04-29T04:04:24;25.73;;;13.43;;
4674;SDS011;2351;50.812;12.872;2023-04-29T04:06:55;23.33;;;12.70;;
4674;SDS011;2351;50.812;12.872;2023-04-29T04:09:27;21.93;;;12.10;;
4674;SDS011;2351;50.812;12.872;2023-04-29T04:12:00;26.33;;;12.30;;
4674;SDS011;2351;50.812;12.872;2023-04-29T04:14:32;23.40;;;11.87;;
4674;SDS011;2351;50.812;12.872;2023-04-29T04:17:04;28.80;;;14.67;;
4674;SDS011;2351;50.812;12.872;2023-04-29T04:19:36;23.10;;;11.80;;
4674;SDS011;2351;50.812;12.872;2023-04-29T04:22:08;25.17;;;13.03;;
4674;SDS011;2351;50.812;12.872;2023-04-29T04:24:40;24.07;;;12.43;;
4674;SDS011;2351;50.812;12.872;2023-04-29T04:27:13;39.20;;;13.23;;
4674;SDS011;2351;50.812;12.872;2023-04-29T04:29:45;24.50;;;12.50;;
4674;SDS011;2351;50.812;12.872;2023-04-29T04:32:17;23.67;;;13.77;;
4674;SDS011;2351;50.812;12.872;2023-04-29T04:34:49;22.37;;;10.77;;
4674;SDS011;2351;50.812;12.872;2023-04-29T04:37:20;24.53;;;13.53;;
4674;SDS011;2351;50.812;12.872;2023-04-29T04:39:52;24.53;;;11.97;;
4674;SDS011;2351;50.812;12.872;2023-04-29T04:42:25;22.73;;;11.90;;
4674;SDS011;2351;50.812;12.872;2023-04-29T04:44:56;21.20;;;12.50;;
4674;SDS011;2351;50.812;12.872;2023-04-29T04:47:28;21.67;;;12.30;;
4674;SDS011;2351;50.812;12.872;2023-04-29T04:50:00;27.77;;;12.87;;
4674;SDS011;2351;50.812;12.872;2023-04-29T04:52:33;25.70;;;13.93;;
4674;SDS011;2351;50.812;12.872;2023-04-29T04:55:05;28.97;;;12.60;;
4674;SDS011;2351;50.812;12.872;2023-04-29T04:57:39;21.03;;;11.70;;
4674;SDS011;2351;50.812;12.872;2023-04-29T05:00:11;22.27;;;13.33;;
4674;SDS011;2351;50.812;12.872;2023-04-29T05:02:43;21.80;;;12.33;;
4674;SDS011;2351;50.812;12.872;2023-04-29T05:05:15;24.07;;;12.73;;
4674;SDS011;2351;50.812;12.872;2023-04-29T05:07:47;25.43;;;12.03;;
4674;SDS011;2351;50.812;12.872;2023-04-29T05:10:18;28.30;;;14.00;;
4674;SDS011;2351;50.812;12.872;2023-04-29T05:12:56;27.47;;;13.13;;
4674;SDS011;2351;50.812;12.872;2023-04-29T05:15:28;28.23;;;13.70;;
4674;SDS011;2351;50.812;12.872;2023-04-29T05:18:00;23.17;;;12.03;;
4674;SDS011;2351;50.812;12.872;2023-04-29T05:20:31;24.30;;;12.77;;
4674;SDS011;2351;50.812;12.872;2023-04-29T05:23:03;25.97;;;13.80;;
4674;SDS011;2351;50.812;12.872;2023-04-29T05:25:35;27.17;;;13.53;;
4674;SDS011;2351;50.812;12.872;2023-04-29T05:28:08;22.67;;;11.83;;
4674;SDS011;2351;50.812;12.872;2023-04-29T05:30:40;25.97;;;12.90;;
4674;SDS011;2351;50.812;12.872;2023-04-29T05:33:12;22.00;;;12.63;;
4674;SDS011;2351;50.812;12.872;2023-04-29T05:35:44;29.33;;;11.93;;
4674;SDS011;2351;50.812;12.872;2023-04-29T05:38:16;21.50;;;12.00;;
4674;SDS011;2351;50.812;12.872;2023-04-29T05:40:47;21.97;;;11.40;;
4674;SDS011;2351;50.812;12.872;2023-04-29T05:43:23;21.13;;;12.10;;
4674;SDS011;2351;50.812;12.872;2023-04-29T05:45:56;28.77;;;13.70;;
4674;SDS011;2351;50.812;12.872;2023-04-29T05:48:28;32.07;;;16.53;;
4674;SDS011;2351;50.812;12.872;2023-04-29T05:51:00;27.50;;;14.90;;
4674;SDS011;2351;50.812;12.872;2023-04-29T05:53:32;25.53;;;13.30;;
4674;SDS011;2351;50.812;12.872;2023-04-29T05:56:05;20.60;;;12.10;;
4674;SDS011;2351;50.812;12.872;2023-04-29T05:58:38;24.90;;;12.33;;
4674;SDS011;2351;50.812;12.872;2023-04-29T06:01:10;21.10;;;12.00;;
4674;SDS011;2351;50.812;12.872;2023-04-29T06:03:42;22.97;;;10.70;;
4674;SDS011;2351;50.812;12.872;2023-04-29T06:06:14;16.90;;;10.47;;
4674;SDS011;2351;50.812;12.872;2023-04-29T06:08:46;17.30;;;9.23;;
4674;SDS011;2351;50.812;12.872;2023-04-29T06:11:17;16.43;;;9.80;;
4674;SDS011;2351;50.812;12.872;2023-04-29T06:13:50;14.10;;;8.03;;
4674;SDS011;2351;50.812;12.872;2023-04-29T06:16:22;13.10;;;8.33;;
4674;SDS011;2351;50.812;12.872;2023-04-29T06:18:54;13.30;;;8.73;;
4674;SDS011;2351;50.812;12.872;2023-04-29T06:21:26;15.27;;;8.87;;
4674;SDS011;2351;50.812;12.872;2023-04-29T06:23:58;18.70;;;8.47;;
4674;SDS011;2351;50.812;12.872;2023-04-29T06:26:29;17.70;;;7.13;;
4674;SDS011;2351;50.812;12.872;2023-04-29T06:29:02;15.87;;;8.57;;
4674;SDS011;2351;50.812;12.872;2023-04-29T06:31:34;12.57;;;7.23;;
4674;SDS011;2351;50.812;12.872;2023-04-29T06:34:06;11.23;;;6.17;;
4674;SDS011;2351;50.812;12.872;2023-04-29T06:36:37;16.33;;;8.80;;
4674;SDS011;2351;50.812;12.872;2023-04-29T06:39:10;12.67;;;7.30;;
4674;SDS011;2351;50.812;12.872;2023-04-29T06:41:42;13.50;;;7.83;;
4674;SDS011;2351;50.812;12.872;2023-04-29T06:44:15;12.77;;;7.90;;
4674;SDS011;2351;50.812;12.872;2023-04-29T06:46:47;12.03;;;7.07;;
4674;SDS011;2351;50.812;12.872;2023-04-29T06:49:18;13.87;;;8.93;;
4674;SDS011;2351;50.812;12.872;2023-04-29T06:51:50;11.50;;;7.13;;
4674;SDS011;2351;50.812;12.872;2023-04-29T06:54:22;19.37;;;8.50;;
4674;SDS011;2351;50.812;12.872;2023-04-29T06:56:54;11.17;;;6.33;;
4674;SDS011;2351;50.812;12.872;2023-04-29T06:59:28;11.40;;;6.37;;
4674;SDS011;2351;50.812;12.872;2023-04-29T07:02:00;12.33;;;5.97;;
4674;SDS011;2351;50.812;12.872;2023-04-29T07:04:31;9.33;;;5.00;;
4674;SDS011;2351;50.812;12.872;2023-04-29T07:07:03;13.07;;;6.87;;
4674;SDS011;2351;50.812;12.872;2023-04-29T07:09:35;10.07;;;6.00;;
4674;SDS011;2351;50.812;12.872;2023-04-29T07:12:07;12.33;;;6.13;;
4674;SDS011;2351;50.812;12.872;2023-04-29T07:14:40;15.50;;;7.40;;
4674;SDS011;2351;50.812;12.872;2023-04-29T07:17:12;13.73;;;6.93;;
4674;SDS011;2351;50.812;12.872;2023-04-29T07:19:43;14.90;;;7.07;;
4674;SDS011;2351;50.812;12.872;2023-04-29T07:22:15;11.60;;;7.70;;
4674;SDS011;2351;50.812;12.872;2023-04-29T07:24:47;14.53;;;7.77;;
4674;SDS011;2351;50.812;12.872;2023-04-29T07:27:18;12.77;;;7.10;;
4674;SDS011;2351;50.812;12.872;2023-04-29T07:29:51;16.47;;;8.30;;
4674;SDS011;2351;50.812;12.872;2023-04-29T07:32:23;16.07;;;7.13;;
4674;SDS011;2351;50.812;12.872;2023-04-29T07:34:55;11.00;;;6.40;;
4674;SDS011;2351;50.812;12.872;2023-04-29T07:37:27;12.27;;;7.00;;
4674;SDS011;2351;50.812;12.872;2023-04-29T07:39:59;13.03;;;6.90;;
4674;SDS011;2351;50.812;12.872;2023-04-29T07:42:31;11.27;;;6.90;;
4674;SDS011;2351;50.812;12.872;2023-04-29T07:45:04;12.30;;;5.17;;
4674;SDS011;2351;50.812;12.872;2023-04-29T07:47:37;7.57;;;4.90;;
4674;SDS011;2351;50.812;12.872;2023-04-29T07:50:09;7.67;;;4.70;;
4674;SDS011;2351;50.812;12.872;2023-04-29T07:52:41;9.00;;;5.30;;
4674;SDS011;2351;50.812;12.872;2023-04-29T07:55:12;9.70;;;5.27;;
4674;SDS011;2351;50.812;12.872;2023-04-29T07:57:44;7.47;;;5.07;;
4674;SDS011;2351;50.812;12.872;2023-04-29T08:00:17;8.93;;;5.07;;
4674;SDS011;2351;50.812;12.872;2023-04-29T08:02:49;11.30;;;6.33;;
4674;SDS011;2351;50.812;12.872;2023-04-29T08:05:22;7.53;;;4.20;;
4674;SDS011;2351;50.812;12.872;2023-04-29T08:07:54;11.63;;;5.50;;
4674;SDS011;2351;50.812;12.872;2023-04-29T08:10:25;9.00;;;5.20;;
4674;SDS011;2351;50.812;12.872;2023-04-29T08:12:57;8.67;;;4.80;;
4674;SDS011;2351;50.812;12.872;2023-04-29T08:15:30;6.40;;;4.40;;
4674;SDS011;2351;50.812;12.872;2023-04-29T08:18:02;5.57;;;3.83;;
4674;SDS011;2351;50.812;12.872;2023-04-29T08:20:34;7.63;;;4.67;;
4674;SDS011;2351;50.812;12.872;2023-04-29T08:23:06;7.90;;;4.33;;
4674;SDS011;2351;50.812;12.872;2023-04-29T08:25:39;6.87;;;4.03;;
4674;SDS011;2351;50.812;12.872;2023-04-29T08:28:11;5.63;;;3.27;;
4674;SDS011;2351;50.812;12.872;2023-04-29T08:30:44;7.47;;;4.10;;
4674;SDS011;2351;50.812;12.872;2023-04-29T08:33:16;12.70;;;3.60;;
4674;SDS011;2351;50.812;12.872;2023-04-29T08:35:48;6.80;;;3.83;;
4674;SDS011;2351;50.812;12.872;2023-04-29T08:38:27;4.10;;;3.43;;
4674;SDS011;2351;50.812;12.872;2023-04-29T08:40:59;6.17;;;3.40;;
4674;SDS011;2351;50.812;12.872;2023-04-29T08:43:32;4.00;;;2.23;;
4674;SDS011;2351;50.812;12.872;2023-04-29T08:46:07;4.87;;;2.17;;
4674;SDS011;2351;50.812;12.872;2023-04-29T08:48:40;4.80;;;2.83;;
4674;SDS011;2351;50.812;12.872;2023-04-29T08:51:13;2.80;;;1.87;;
4674;SDS011;2351;50.812;12.872;2023-04-29T08:53:44;3.57;;;2.83;;
4674;SDS011;2351;50.812;12.872;2023-04-29T08:56:16;2.83;;;2.03;;
4674;SDS011;2351;50.812;12.872;2023-04-29T08:58:49;3.50;;;2.77;;
4674;SDS011;2351;50.812;12.872;2023-04-29T09:01:25;4.13;;;2.90;;
4674;SDS011;2351;50.812;12.872;2023-04-29T09:04:02;3.53;;;2.80;;
4674;SDS011;2351;50.812;12.872;2023-04-29T09:06:39;7.80;;;3.10;;
4674;SDS011;2351;50.812;12.872;2023-04-29T09:09:11;4.47;;;3.27;;
4674;SDS011;2351;50.812;12.872;2023-04-29T09:11:44;3.77;;;3.07;;
4674;SDS011;2351;50.812;12.872;2023-04-29T09:14:16;3.53;;;3.00;;
4674;SDS011;2351;50.812;12.872;2023-04-29T09:16:50;5.33;;;3.23;;
4674;SDS011;2351;50.812;12.872;2023-04-29T09:19:28;4.43;;;3.00;;
4674;SDS011;2351;50.812;12.872;2023-04-29T09:22:01;5.30;;;3.23;;
4674;SDS011;2351;50.812;12.872;2023-04-29T09:24:34;8.67;;;2.87;;
4674;SDS011;2351;50.812;12.872;2023-04-29T09:27:07;3.10;;;2.27;;
4674;SDS011;2351;50.812;12.872;2023-04-29T09:29:38;5.57;;;3.30;;
4674;SDS011;2351;50.812;12.872;2023-04-29T09:32:32;5.10;;;3.40;;
4674;SDS011;2351;50.812;12.872;2023-04-29T09:38:06;5.93;;;3.30;;
4674;SDS011;2351;50.812;12.872;2023-04-29T09:40:40;3.67;;;2.90;;
4674;SDS011;2351;50.812;12.872;2023-04-29T09:43:13;5.00;;;3.70;;
4674;SDS011;2351;50.812;12.872;2023-04-29T09:45:47;6.23;;;4.07;;
4674;SDS011;2351;50.812;12.872;2023-04-29T09:48:20;5.70;;;3.60;;
4674;SDS011;2351;50.812;12.872;2023-04-29T09:50:58;5.77;;;4.20;;
4674;SDS011;2351;50.812;12.872;2023-04-29T09:53:31;6.63;;;3.43;;
4674;SDS011;2351;50.812;12.872;2023-04-29T09:56:07;7.33;;;4.10;;
4674;SDS011;2351;50.812;12.872;2023-04-29T09:58:38;6.40;;;3.60;;
4674;SDS011;2351;50.812;12.872;2023-04-29T10:01:10;5.77;;;4.37;;
4674;SDS011;2351;50.812;12.872;2023-04-29T10:03:44;10.70;;;5.73;;
4674;SDS011;2351;50.812;12.872;2023-04-29T10:06:18;6.60;;;4.10;;
4674;SDS011;2351;50.812;12.872;2023-04-29T10:08:50;9.97;;;6.13;;
4674;SDS011;2351;50.812;12.872;2023-04-29T10:11:22;9.33;;;6.20;;
4674;SDS011;2351;50.812;12.872;2023-04-29T10:13:54;10.93;;;6.40;;
4674;SDS011;2351;50.812;12.872;2023-04-29T10:16:27;14.80;;;9.60;;
4674;SDS011;2351;50.812;12.872;2023-04-29T10:19:02;13.80;;;8.30;;
4674;SDS011;2351;50.812;12.872;2023-04-29T10:21:37;17.03;;;10.93;;
4674;SDS011;2351;50.812;12.872;2023-04-29T10:24:09;19.80;;;11.40;;
4674;SDS011;2351;50.812;12.872;2023-04-29T10:26:42;18.47;;;9.60;;
4674;SDS011;2351;50.812;12.872;2023-04-29T10:29:14;22.93;;;10.93;;
4674;SDS011;2351;50.812;12.872;2023-04-29T10:31:48;22.10;;;12.60;;
4674;SDS011;2351;50.812;12.872;2023-04-29T10:34:22;20.90;;;10.80;;
4674;SDS011;2351;50.812;12.872;2023-04-29T10:36:55;18.87;;;10.67;;
4674;SDS011;2351;50.812;12.872;2023-04-29T10:39:30;20.10;;;10.97;;
4674;SDS011;2351;50.812;12.872;2023-04-29T10:42:15;20.33;;;11.27;;
4674;SDS011;2351;50.812;12.872;2023-04-29T10:51:01;19.67;;;12.37;;
4674;SDS011;2351;50.812;12.872;2023-04-29T10:53:33;27.23;;;12.23;;
4674;SDS011;2351;50.812;12.872;2023-04-29T10:56:09;23.63;;;12.70;;
4674;SDS011;2351;50.812;12.872;2023-04-29T10:58:41;25.90;;;13.67;;
4674;SDS011;2351;50.812;12.872;2023-04-29T11:01:15;23.93;;;12.10;;
4674;SDS011;2351;50.812;12.872;2023-04-29T11:03:51;28.50;;;12.57;;
4674;SDS011;2351;50.812;12.872;2023-04-29T11:06:41;32.47;;;12.87;;
4674;SDS011;2351;50.812;12.872;2023-04-29T11:09:18;24.20;;;14.30;;
4674;SDS011;2351;50.812;12.872;2023-04-29T11:11:55;33.43;;;14.43;;
4674;SDS011;2351;50.812;12.872;2023-04-29T11:14:30;28.27;;;15.13;;
4674;SDS011;2351;50.812;12.872;2023-04-29T11:17:07;27.23;;;14.43;;
4674;SDS011;2351;50.812;12.872;2023-04-29T11:19:40;26.80;;;13.60;;
4674;SDS011;2351;50.812;12.872;2023-04-29T11:22:24;25.80;;;14.00;;
4674;SDS011;2351;50.812;12.872;2023-04-29T11:25:00;28.73;;;15.53;;
4674;SDS011;2351;50.812;12.872;2023-04-29T11:27:33;23.67;;;14.20;;
4674;SDS011;2351;50.812;12.872;2023-04-29T11:30:06;24.40;;;14.27;;
4674;SDS011;2351;50.812;12.872;2023-04-29T11:32:39;26.17;;;13.77;;
4674;SDS011;2351;50.812;12.872;2023-04-29T11:35:12;25.43;;;14.90;;
4674;SDS011;2351;50.812;12.872;2023-04-29T11:37:46;27.33;;;14.10;;
4674;SDS011;2351;50.812;12.872;2023-04-29T11:40:18;25.97;;;14.50;;
4674;SDS011;2351;50.812;12.872;2023-04-29T11:42:50;24.90;;;14.00;;
4674;SDS011;2351;50.812;12.872;2023-04-29T11:45:22;24.60;;;13.33;;
4674;SDS011;2351;50.812;12.872;2023-04-29T11:47:53;24.13;;;12.87;;
4674;SDS011;2351;50.812;12.872;2023-04-29T11:50:25;20.60;;;13.07;;
4674;SDS011;2351;50.812;12.872;2023-04-29T11:52:58;24.13;;;12.20;;
4674;SDS011;2351;50.812;12.872;2023-04-29T11:55:30;20.70;;;12.30;;
4674;SDS011;2351;50.812;12.872;2023-04-29T11:58:03;21.50;;;11.57;;
4674;SDS011;2351;50.812;12.872;2023-04-29T12:00:34;19.13;;;10.97;;
4674;SDS011;2351;50.812;12.872;2023-04-29T12:03:07;22.93;;;10.93;;
4674;SDS011;2351;50.812;12.872;2023-04-29T12:05:45;17.60;;;10.50;;
4674;SDS011;2351;50.812;12.872;2023-04-29T12:08:20;17.37;;;10.07;;
4674;SDS011;2351;50.812;12.872;2023-04-29T12:10:52;14.77;;;9.13;;
4674;SDS011;2351;50.812;12.872;2023-04-29T12:13:26;20.77;;;10.70;;
4674;SDS011;2351;50.812;12.872;2023-04-29T12:15:59;18.93;;;9.80;;
4674;SDS011;2351;50.812;12.872;2023-04-29T12:18:31;20.57;;;10.83;;
4674;SDS011;2351;50.812;12.872;2023-04-29T12:21:03;19.07;;;11.23;;
4674;SDS011;2351;50.812;12.872;2023-04-29T12:23:37;18.30;;;10.30;;
4674;SDS011;2351;50.812;12.872;2023-04-29T12:26:08;19.63;;;11.27;;
4674;SDS011;2351;50.812;12.872;2023-04-29T12:28:40;17.73;;;10.37;;
4674;SDS011;2351;50.812;12.872;2023-04-29T12:31:13;19.47;;;10.63;;
4674;SDS011;2351;50.812;12.872;2023-04-29T12:33:45;17.67;;;10.87;;
4674;SDS011;2351;50.812;12.872;2023-04-29T12:36:17;17.37;;;10.30;;
4674;SDS011;2351;50.812;12.872;2023-04-29T12:38:51;14.83;;;8.70;;
4674;SDS011;2351;50.812;12.872;2023-04-29T12:41:34;12.87;;;8.57;;
4674;SDS011;2351;50.812;12.872;2023-04-29T12:44:07;16.80;;;8.60;;
4674;SDS011;2351;50.812;12.872;2023-04-29T12:46:40;12.33;;;6.90;;
4674;SDS011;2351;50.812;12.872;2023-04-29T12:49:12;13.83;;;7.73;;
4674;SDS011;2351;50.812;12.872;2023-04-29T12:51:44;11.33;;;7.33;;
4674;SDS011;2351;50.812;12.872;2023-04-29T12:54:17;12.60;;;7.10;;
4674;SDS011;2351;50.812;12.872;2023-04-29T12:56:49;9.50;;;6.30;;
4674;SDS011;2351;50.812;12.872;2023-04-29T12:59:21;9.13;;;6.20;;
4674;SDS011;2351;50.812;12.872;2023-04-29T13:01:53;8.00;;;5.73;;
4674;SDS011;2351;50.812;12.872;2023-04-29T13:04:24;12.67;;;7.47;;
4674;SDS011;2351;50.812;12.872;2023-04-29T13:06:56;11.63;;;7.63;;
4674;SDS011;2351;50.812;12.872;2023-04-29T13:09:31;13.20;;;7.90;;
4674;SDS011;2351;50.812;12.872;2023-04-29T13:12:03;14.40;;;8.50;;
4674;SDS011;2351;50.812;12.872;2023-04-29T13:14:38;15.37;;;8.90;;
4674;SDS011;2351;50.812;12.872;2023-04-29T13:17:10;10.03;;;6.37;;
4674;SDS011;2351;50.812;12.872;2023-04-29T13:19:41;12.00;;;7.00;;
4674;SDS011;2351;50.812;12.872;2023-04-29T13:22:14;10.03;;;7.07;;
4674;SDS011;2351;50.812;12.872;2023-04-29T13:24:47;11.20;;;6.77;;
4674;SDS011;2351;50.812;12.872;2023-04-29T13:27:19;16.13;;;9.23;;
4674;SDS011;2351;50.812;12.872;2023-04-29T13:29:50;14.20;;;9.67;;
4674;SDS011;2351;50.812;12.872;2023-04-29T13:32:22;17.67;;;10.87;;
4674;SDS011;2351;50.812;12.872;2023-04-29T13:34:54;18.40;;;11.80;;
4674;SDS011;2351;50.812;12.872;2023-04-29T13:37:26;17.03;;;11.30;;
4674;SDS011;2351;50.812;12.872;2023-04-29T13:39:59;18.70;;;10.90;;
4674;SDS011;2351;50.812;12.872;2023-04-29T13:42:30;16.43;;;10.67;;
4674;SDS011;2351;50.812;12.872;2023-04-29T13:45:02;22.60;;;11.47;;
4674;SDS011;2351;50.812;12.872;2023-04-29T13:47:34;17.83;;;11.70;;
4674;SDS011;2351;50.812;12.872;2023-04-29T13:50:06;16.50;;;10.00;;
4674;SDS011;2351;50.812;12.872;2023-04-29T13:52:38;17.13;;;10.40;;
4674;SDS011;2351;50.812;12.872;2023-04-29T13:55:11;21.10;;;11.00;;
4674;SDS011;2351;50.812;12.872;2023-04-29T13:57:43;20.03;;;12.20;;
4674;SDS011;2351;50.812;12.872;2023-04-29T14:00:15;19.33;;;11.27;;
4674;SDS011;2351;50.812;12.872;2023-04-29T14:02:47;22.60;;;11.67;;
4674;SDS011;2351;50.812;12.872;2023-04-29T14:05:19;15.10;;;8.53;;
4674;SDS011;2351;50.812;12.872;2023-04-29T14:07:51;22.50;;;10.03;;
4674;SDS011;2351;50.812;12.872;2023-04-29T14:10:24;17.43;;;9.80;;
4674;SDS011;2351;50.812;12.872;2023-04-29T14:12:56;15.37;;;9.50;;
4674;SDS011;2351;50.812;12.872;2023-04-29T14:15:27;14.23;;;9.33;;
4674;SDS011;2351;50.812;12.872;2023-04-29T14:17:59;19.30;;;10.30;;
4674;SDS011;2351;50.812;12.872;2023-04-29T14:20:31;17.73;;;8.43;;
4674;SDS011;2351;50.812;12.872;2023-04-29T14:23:03;13.23;;;8.90;;
4674;SDS011;2351;50.812;12.872;2023-04-29T14:25:36;16.00;;;9.83;;
4674;SDS011;2351;50.812;12.872;2023-04-29T14:28:08;16.93;;;10.33;;
4674;SDS011;2351;50.812;12.872;2023-04-29T14:30:40;17.17;;;11.47;;
4674;SDS011;2351;50.812;12.872;2023-04-29T14:33:12;18.83;;;11.80;;
4674;SDS011;2351;50.812;12.872;2023-04-29T14:35:44;19.97;;;11.80;;
4674;SDS011;2351;50.812;12.872;2023-04-29T14:38:16;17.77;;;11.13;;
4674;SDS011;2351;50.812;12.872;2023-04-29T14:40:49;19.53;;;12.07;;
4674;SDS011;2351;50.812;12.872;2023-04-29T14:43:21;23.07;;;13.10;;
4674;SDS011;2351;50.812;12.872;2023-04-29T14:45:53;18.97;;;11.77;;
4674;SDS011;2351;50.812;12.872;2023-04-29T14:48:25;20.70;;;12.73;;
4674;SDS011;2351;50.812;12.872;2023-04-29T14:50:57;22.63;;;13.17;;
4674;SDS011;2351;50.812;12.872;2023-04-29T14:53:29;22.03;;;12.90;;
4674;SDS011;2351;50.812;12.872;2023-04-29T14:56:02;17.00;;;10.50;;
4674;SDS011;2351;50.812;12.872;2023-04-29T14:58:34;18.60;;;11.90;;
4674;SDS011;2351;50.812;12.872;2023-04-29T15:01:06;19.00;;;11.33;;
4674;SDS011;2351;50.812;12.872;2023-04-29T15:03:38;18.23;;;11.93;;
4674;SDS011;2351;50.812;12.872;2023-04-29T15:06:10;20.40;;;12.37;;
4674;SDS011;2351;50.812;12.872;2023-04-29T15:08:42;16.33;;;10.50;;
4674;SDS011;2351;50.812;12.872;2023-04-29T15:11:15;19.07;;;11.40;;
4674;SDS011;2351;50.812;12.872;2023-04-29T15:13:47;17.90;;;10.80;;
4674;SDS011;2351;50.812;12.872;2023-04-29T15:16:18;19.80;;;11.03;;
4674;SDS011;2351;50.812;12.872;2023-04-29T15:18:50;17.57;;;10.83;;
4674;SDS011;2351;50.812;12.872;2023-04-29T15:21:22;15.60;;;10.50;;
4674;SDS011;2351;50.812;12.872;2023-04-29T15:23:53;17.73;;;9.83;;
4674;SDS011;2351;50.812;12.872;2023-04-29T15:26:26;18.93;;;11.43;;